Terminal Aerodrome Forecast
Issued by NWS Tulsa, OK

Home | Current Version | Previous Version | Text Only | Print | Product List | Glossary On
Versions: 1 2 3 4 5 6 7 8 9 10 11 12 13 14 15 16
000
FTUS44 KTSA 271720
TAFTUL
TAF
KTUL 271720Z 2718/2818 15007G19KT P6SM VCTS BKN050CB
      TEMPO 2718/2720 4SM TSRA BKN025CB
     FM272000 17010KT P6SM BKN050 BKN250
     FM280200 16008KT P6SM BKN250
     FM281500 18010G20KT P6SM BKN250=

USA.gov is the U.S. government's official web portal to all federal, state and local government web resources and services.